Time;durP1;ratioP1;P1;durP2;ratioP2;P2;SDS_P1;SDS_P2;PMS_P1;PMS_P2;Temp;Humidity;BMP_temperature;BMP_pressure;BME280_temperature;BME280_humidity;BME280_pressure;Samples;Min_cycle;Max_cycle;Signal;HPM_P1;HPM_P2
2024/01/08 00:01:49;;;;;;;1.40;1.30;;;;;;;;;;10440388;28;20099;-73
2024/01/08 00:06:53;;;;;;;1.80;1.17;;;;;;;;;;10432560;28;20087;-73
2024/01/08 00:11:56;;;;;;;3.03;2.03;;;;;;;;;;10438753;28;20045;-73
2024/01/08 00:17:00;;;;;;;2.95;2.08;;;;;;;;;;10436778;28;20063;-73
2024/01/08 00:22:04;;;;;;;3.10;1.63;;;;;;;;;;10425508;28;20423;-73
2024/01/08 00:27:07;;;;;;;1.55;1.45;;;;;;;;;;10437647;28;20056;-73
2024/01/08 00:32:12;;;;;;;2.53;2.20;;;;;;;;;;10440878;28;20041;-72
2024/01/08 00:37:15;;;;;;;1.70;1.60;;;;;;;;;;10444648;28;20048;-73
2024/01/08 00:42:18;;;;;;;2.00;1.80;;;;;;;;;;10430868;28;20406;-73
2024/01/08 00:47:23;;;;;;;2.50;1.88;;;;;;;;;;10445184;28;20429;-73
2024/01/08 00:52:26;;;;;;;2.42;1.75;;;;;;;;;;10445847;28;20065;-73
2024/01/08 00:57:30;;;;;;;1.88;1.58;;;;;;;;;;10444468;28;20048;-73
2024/01/08 01:02:35;;;;;;;1.85;1.63;;;;;;;;;;10443871;28;20368;-73
2024/01/08 01:07:38;;;;;;;1.90;1.52;;;;;;;;;;10452143;28;20040;-73
2024/01/08 01:12:41;;;;;;;1.92;1.67;;;;;;;;;;10448767;28;20037;-73
2024/01/08 01:17:46;;;;;;;2.17;1.85;;;;;;;;;;10446777;28;20080;-73
2024/01/08 01:22:49;;;;;;;1.65;1.42;;;;;;;;;;10443840;28;20052;-73
2024/01/08 01:27:52;;;;;;;4.38;2.17;;;;;;;;;;10441039;28;20478;-73
2024/01/08 01:32:57;;;;;;;3.15;1.60;;;;;;;;;;10444924;28;20045;-73
2024/01/08 01:38:00;;;;;;;2.03;1.40;;;;;;;;;;10442232;28;20214;-73
2024/01/08 01:43:19;;;;;;;2.10;1.60;;;;;;;;;;10444322;28;20041;-73
2024/01/08 01:48:25;;;;;;;2.00;1.40;;;;;;;;;;10443387;28;20486;-73
2024/01/08 01:53:29;;;;;;;2.20;1.58;;;;;;;;;;10432415;28;20778;-73
2024/01/08 01:58:32;;;;;;;2.78;1.40;;;;;;;;;;10442241;28;20045;-73
2024/01/08 02:03:37;;;;;;;2.10;1.45;;;;;;;;;;10441732;28;20064;-73
2024/01/08 02:08:41;;;;;;;1.90;1.58;;;;;;;;;;10440114;28;20099;-73
2024/01/08 02:13:44;;;;;;;1.90;1.50;;;;;;;;;;10438178;28;20043;-73
2024/01/08 02:18:49;;;;;;;3.63;1.98;;;;;;;;;;10441731;28;20051;-73
2024/01/08 02:23:54;;;;;;;1.77;1.38;;;;;;;;;;10440556;28;20041;-73
2024/01/08 02:28:57;;;;;;;2.22;1.40;;;;;;;;;;10440821;28;20200;-72
2024/01/08 02:34:00;;;;;;;3.08;1.58;;;;;;;;;;10441361;28;20045;-73
2024/01/08 02:39:05;;;;;;;1.80;1.20;;;;;;;;;;10438400;28;20383;-73
2024/01/08 02:44:08;;;;;;;1.52;1.20;;;;;;;;;;10436062;28;20049;-73
2024/01/08 02:49:11;;;;;;;1.45;1.30;;;;;;;;;;10432871;28;20124;-73
2024/01/08 02:54:16;;;;;;;1.50;1.40;;;;;;;;;;10438903;28;20118;-72
2024/01/08 02:59:19;;;;;;;1.10;1.00;;;;;;;;;;10428391;28;20504;-73
2024/01/08 03:04:22;;;;;;;1.23;1.10;;;;;;;;;;10440088;28;20049;-73
2024/01/08 03:09:27;;;;;;;2.45;1.40;;;;;;;;;;10438261;28;20053;-73
2024/01/08 03:14:30;;;;;;;1.65;1.30;;;;;;;;;;10437282;28;20037;-73
2024/01/08 03:19:33;;;;;;;1.13;1.02;;;;;;;;;;10440091;28;20065;-73
2024/01/08 03:24:38;;;;;;;1.40;1.30;;;;;;;;;;10438893;28;20725;-73
2024/01/08 03:29:41;;;;;;;2.13;1.50;;;;;;;;;;10437934;28;20405;-73
2024/01/08 03:34:46;;;;;;;2.67;1.25;;;;;;;;;;10437551;28;20033;-73
2024/01/08 03:39:50;;;;;;;2.83;1.30;;;;;;;;;;10439426;28;20087;-72
2024/01/08 03:44:54;;;;;;;1.50;1.40;;;;;;;;;;10440037;28;20045;-73
2024/01/08 03:49:57;;;;;;;2.17;1.50;;;;;;;;;;10435231;28;20053;-72
2024/01/08 03:55:02;;;;;;;1.45;1.35;;;;;;;;;;10435723;28;20576;-72
2024/01/08 04:00:06;;;;;;;1.40;1.30;;;;;;;;;;10429196;28;20052;-73
2024/01/08 04:05:15;;;;;;;1.45;1.30;;;;;;;;;;10435779;28;20049;-73
2024/01/08 04:10:19;;;;;;;1.80;1.40;;;;;;;;;;10437953;28;20041;-73
2024/01/08 04:15:23;;;;;;;1.90;1.40;;;;;;;;;;10431770;28;20479;-73
2024/01/08 04:20:26;;;;;;;1.75;1.55;;;;;;;;;;10439544;28;21013;-73
2024/01/08 04:25:31;;;;;;;1.35;1.25;;;;;;;;;;10440299;28;20068;-73
2024/01/08 04:30:35;;;;;;;1.95;1.70;;;;;;;;;;10444019;28;20049;-73
2024/01/08 04:35:38;;;;;;;1.60;1.38;;;;;;;;;;10440068;28;20865;-73
2024/01/08 04:40:43;;;;;;;3.15;1.40;;;;;;;;;;10449013;28;20048;-73
2024/01/08 04:45:46;;;;;;;1.50;1.40;;;;;;;;;;10448269;28;20726;-73
2024/01/08 04:50:49;;;;;;;2.60;2.08;;;;;;;;;;10441668;28;20049;-73
2024/01/08 04:55:54;;;;;;;2.22;1.63;;;;;;;;;;10444044;28;20045;-73
2024/01/08 05:01:00;;;;;;;1.77;1.67;;;;;;;;;;10443949;28;20045;-72
2024/01/08 05:06:04;;;;;;;1.75;1.50;;;;;;;;;;10437168;28;20049;-73
2024/01/08 05:11:08;;;;;;;1.98;1.77;;;;;;;;;;10433177;28;20457;-73
2024/01/08 05:16:13;;;;;;;1.80;1.70;;;;;;;;;;10437927;28;20041;-73
2024/01/08 05:21:16;;;;;;;2.40;2.10;;;;;;;;;;10441263;28;20045;-73
2024/01/08 05:26:21;;;;;;;2.97;2.00;;;;;;;;;;10440945;28;20043;-73
2024/01/08 05:31:24;;;;;;;2.67;2.13;;;;;;;;;;10437935;28;20041;-73
2024/01/08 05:36:27;;;;;;;2.08;1.80;;;;;;;;;;10439922;28;20057;-73
2024/01/08 05:41:32;;;;;;;2.58;1.90;;;;;;;;;;10431960;28;20068;-73
2024/01/08 05:46:35;;;;;;;3.38;2.00;;;;;;;;;;10435981;28;20049;-73
2024/01/08 05:51:38;;;;;;;2.67;2.20;;;;;;;;;;10442132;28;20521;-73
2024/01/08 05:56:43;;;;;;;2.65;2.30;;;;;;;;;;10442563;28;20422;-73
2024/01/08 06:01:46;;;;;;;3.05;2.40;;;;;;;;;;10437040;28;20044;-73
2024/01/08 06:06:52;;;;;;;2.08;1.60;;;;;;;;;;10445722;28;20509;-73
2024/01/08 06:11:58;;;;;;;2.90;2.05;;;;;;;;;;10436591;28;20102;-73
2024/01/08 06:17:01;;;;;;;;;;;;;;;;;;10432003;28;20049;-73
2024/01/08 06:22:05;;;;;;;3.35;1.85;;;;;;;;;;10442616;28;19948;-72
2024/01/08 06:27:10;;;;;;;2.28;2.00;;;;;;;;;;10448925;28;20072;-73
2024/01/08 06:32:13;;;;;;;2.10;1.77;;;;;;;;;;10442315;28;20049;-73
2024/01/08 06:37:17;;;;;;;1.40;1.30;;;;;;;;;;10443752;28;20125;-73
2024/01/08 06:42:21;;;;;;;1.55;1.45;;;;;;;;;;10441843;28;20045;-73
2024/01/08 06:47:25;;;;;;;2.90;1.80;;;;;;;;;;10443772;28;20363;-73
2024/01/08 06:52:28;;;;;;;2.35;1.92;;;;;;;;;;10440116;28;20037;-73
2024/01/08 06:57:33;;;;;;;4.43;2.80;;;;;;;;;;10436279;28;20104;-72
2024/01/08 07:02:37;;;;;;;3.50;2.00;;;;;;;;;;10441997;28;20375;-73
2024/01/08 07:07:40;;;;;;;3.00;1.92;;;;;;;;;;10440342;28;20052;-73
2024/01/08 07:12:46;;;;;;;2.40;1.70;;;;;;;;;;10439409;28;20103;-73
2024/01/08 07:17:49;;;;;;;2.33;1.90;;;;;;;;;;10440668;28;20073;-73
2024/01/08 07:22:52;;;;;;;2.53;1.90;;;;;;;;;;10442506;28;20044;-73
2024/01/08 07:27:57;;;;;;;1.52;1.42;;;;;;;;;;10440347;28;20045;-73
2024/01/08 07:33:01;;;;;;;1.98;1.73;;;;;;;;;;10437635;28;20541;-73
2024/01/08 07:38:05;;;;;;;1.85;1.70;;;;;;;;;;10442257;28;20051;-73
2024/01/08 07:43:09;;;;;;;3.42;1.90;;;;;;;;;;10442334;28;20490;-73
2024/01/08 07:48:12;;;;;;;3.05;2.10;;;;;;;;;;10443963;28;20458;-73
2024/01/08 07:53:16;;;;;;;2.20;2.00;;;;;;;;;;10439658;28;20132;-73
2024/01/08 07:58:21;;;;;;;2.15;1.70;;;;;;;;;;10455551;28;20155;-73
2024/01/08 08:03:27;;;;;;;3.28;1.98;;;;;;;;;;10452027;28;20041;-73
2024/01/08 08:08:34;;;;;;;3.92;2.08;;;;;;;;;;10446016;28;20116;-73
2024/01/08 08:13:38;;;;;;;2.97;2.10;;;;;;;;;;10454465;28;20442;-73
2024/01/08 08:18:42;;;;;;;2.90;2.20;;;;;;;;;;10462094;28;20037;-73
2024/01/08 08:23:45;;;;;;;4.28;2.17;;;;;;;;;;10457594;28;20055;-73
2024/01/08 08:28:50;;;;;;;2.88;2.28;;;;;;;;;;10453662;28;20052;-73
2024/01/08 08:33:53;;;;;;;3.13;2.13;;;;;;;;;;10450582;28;20041;-73
2024/01/08 08:38:56;;;;;;;2.28;1.90;;;;;;;;;;10453399;28;20491;-73
2024/01/08 08:44:01;;;;;;;1.88;1.30;;;;;;;;;;10446604;28;20061;-73
2024/01/08 08:49:06;;;;;;;1.80;1.67;;;;;;;;;;10455084;28;20045;-73
2024/01/08 08:54:10;;;;;;;2.33;1.90;;;;;;;;;;10453208;28;20041;-73
2024/01/08 08:59:14;;;;;;;2.40;1.75;;;;;;;;;;10455219;28;20041;-73
2024/01/08 09:04:21;;;;;;;3.05;2.40;;;;;;;;;;10447888;28;20049;-73
2024/01/08 09:09:24;;;;;;;3.80;2.40;;;;;;;;;;10446628;28;20547;-73
2024/01/08 09:14:29;;;;;;;1.98;1.70;;;;;;;;;;10440742;28;20045;-73
2024/01/08 09:19:32;;;;;;;2.15;1.95;;;;;;;;;;10440642;28;20122;-73
2024/01/08 09:24:36;;;;;;;3.05;2.38;;;;;;;;;;10443835;28;20055;-73
2024/01/08 09:29:41;;;;;;;3.72;2.70;;;;;;;;;;10443438;28;20586;-73
2024/01/08 09:34:45;;;;;;;2.97;2.10;;;;;;;;;;10445037;28;20045;-73
2024/01/08 09:39:48;;;;;;;3.20;2.42;;;;;;;;;;10442287;28;20071;-73
2024/01/08 09:44:55;;;;;;;2.92;2.20;;;;;;;;;;10443905;28;20049;-73
2024/01/08 09:49:59;;;;;;;3.83;2.67;;;;;;;;;;10438486;28;20059;-73
2024/01/08 09:55:03;;;;;;;3.40;2.25;;;;;;;;;;10444607;28;20037;-73
2024/01/08 10:00:10;;;;;;;3.60;2.30;;;;;;;;;;10443357;28;20029;-73
2024/01/08 10:05:17;;;;;;;2.70;2.10;;;;;;;;;;10444527;28;20033;-73
2024/01/08 10:10:22;;;;;;;3.63;2.00;;;;;;;;;;10446064;28;20037;-73
2024/01/08 10:15:27;;;;;;;2.23;2.00;;;;;;;;;;10439831;28;20045;-73
2024/01/08 10:20:31;;;;;;;3.28;2.58;;;;;;;;;;10441791;28;20037;-73
2024/01/08 10:25:35;;;;;;;5.18;2.60;;;;;;;;;;10444355;28;20036;-73
2024/01/08 10:30:41;;;;;;;3.85;2.85;;;;;;;;;;10441358;28;20040;-73
2024/01/08 10:35:45;;;;;;;4.55;3.05;;;;;;;;;;10442209;28;20155;-73
2024/01/08 10:40:48;;;;;;;4.43;3.00;;;;;;;;;;10444887;28;20284;-73
2024/01/08 10:45:58;;;;;;;4.50;2.55;;;;;;;;;;10442006;28;20170;-73
2024/01/08 10:51:04;;;;;;;4.38;2.67;;;;;;;;;;10439481;28;20075;-73
2024/01/08 10:56:12;;;;;;;6.05;3.05;;;;;;;;;;10441547;28;20037;-73
2024/01/08 11:01:17;;;;;;;4.97;3.28;;;;;;;;;;10437444;28;20053;-73
2024/01/08 11:06:23;;;;;;;5.38;3.15;;;;;;;;;;10427566;23;20462;-75
2024/01/08 11:11:27;;;;;;;6.07;3.25;;;;;;;;;;10337171;28;20561;-75
2024/01/08 11:16:32;;;;;;;7.38;3.90;;;;;;;;;;10334729;28;20395;-75
2024/01/08 11:21:35;;;;;;;4.30;2.95;;;;;;;;;;10334437;28;20689;-75
2024/01/08 11:26:43;;;;;;;4.20;2.75;;;;;;;;;;10334125;28;20039;-75
2024/01/08 11:32:31;;;;;;;3.67;2.63;;;;;;;;;;10330144;28;20046;-75
2024/01/08 11:37:36;;;;;;;6.38;3.85;;;;;;;;;;10337386;28;20122;-75
2024/01/08 11:42:40;;;;;;;5.83;3.67;;;;;;;;;;10336059;28;20046;-75
2024/01/08 11:47:45;;;;;;;7.32;3.95;;;;;;;;;;10335205;28;20043;-75
2024/01/08 11:52:51;;;;;;;5.53;3.47;;;;;;;;;;10339424;28;20054;-75
2024/01/08 11:57:54;;;;;;;4.80;3.47;;;;;;;;;;10343192;28;20044;-75
2024/01/08 12:03:08;;;;;;;6.13;3.30;;;;;;;;;;10336983;28;20065;-75
2024/01/08 12:08:17;;;;;;;6.03;3.10;;;;;;;;;;10336861;28;20046;-75
2024/01/08 12:13:21;;;;;;;9.23;4.22;;;;;;;;;;10339619;28;20079;-75
2024/01/08 12:18:25;;;;;;;6.43;3.85;;;;;;;;;;10337245;28;20050;-75
2024/01/08 12:23:29;;;;;;;5.50;3.42;;;;;;;;;;10331180;28;20560;-74
2024/01/08 12:28:33;;;;;;;6.63;3.63;;;;;;;;;;10334724;28;20042;-72
2024/01/08 12:33:39;;;;;;;4.97;3.45;;;;;;;;;;10336013;28;20056;-72
2024/01/08 12:38:42;;;;;;;4.57;3.20;;;;;;;;;;10336958;28;20085;-72
2024/01/08 12:43:47;;;;;;;4.95;3.38;;;;;;;;;;10332991;28;20136;-72
2024/01/08 12:48:52;;;;;;;5.90;3.25;;;;;;;;;;10341504;28;20038;-72
2024/01/08 12:53:55;;;;;;;6.32;3.72;;;;;;;;;;10340087;28;20054;-72
2024/01/08 12:58:58;;;;;;;7.28;3.45;;;;;;;;;;10337830;28;20053;-72
2024/01/08 13:04:03;;;;;;;4.80;2.97;;;;;;;;;;10342400;28;20057;-72
2024/01/08 13:09:07;;;;;;;5.28;3.45;;;;;;;;;;10328644;28;20054;-72
2024/01/08 13:14:12;;;;;;;6.57;3.55;;;;;;;;;;10344117;28;20046;-72
2024/01/08 13:19:18;;;;;;;6.88;4.20;;;;;;;;;;10342875;28;20054;-72
2024/01/08 13:24:22;;;;;;;6.00;3.67;;;;;;;;;;10334509;28;20137;-72
2024/01/08 13:29:25;;;;;;;6.50;4.10;;;;;;;;;;10341647;28;20054;-72
2024/01/08 13:34:30;;;;;;;6.45;3.95;;;;;;;;;;10333827;28;20038;-72
2024/01/08 13:39:33;;;;;;;5.25;3.58;;;;;;;;;;10333358;28;20065;-72
2024/01/08 13:44:36;;;;;;;6.32;3.42;;;;;;;;;;10336076;28;20408;-72
2024/01/08 13:49:41;;;;;;;5.25;3.63;;;;;;;;;;10330291;28;20386;-72
2024/01/08 13:54:45;;;;;;;8.88;4.80;;;;;;;;;;10329645;28;20053;-72
2024/01/08 13:59:48;;;;;;;7.72;4.28;;;;;;;;;;10332455;28;20052;-72
2024/01/08 14:04:54;;;;;;;7.47;4.20;;;;;;;;;;10334961;28;20173;-72
2024/01/08 14:09:57;;;;;;;6.40;4.05;;;;;;;;;;10337167;28;20415;-72
2024/01/08 14:15:00;;;;;;;6.82;4.03;;;;;;;;;;10336740;28;20049;-72
2024/01/08 14:20:07;;;;;;;6.70;3.88;;;;;;;;;;10336710;28;20049;-72
2024/01/08 14:25:10;;;;;;;8.55;4.03;;;;;;;;;;10339692;28;20046;-72
2024/01/08 14:30:14;;;;;;;5.78;3.63;;;;;;;;;;10332147;28;20557;-72
2024/01/08 14:35:19;;;;;;;6.45;3.95;;;;;;;;;;10338732;28;20391;-72
2024/01/08 14:40:27;;;;;;;4.23;3.20;;;;;;;;;;10331643;28;20260;-72
2024/01/08 14:45:30;;;;;;;7.68;4.00;;;;;;;;;;10335233;28;20121;-72
2024/01/08 14:50:35;;;;;;;5.07;3.45;;;;;;;;;;10329981;28;20050;-72
2024/01/08 14:55:38;;;;;;;9.43;5.05;;;;;;;;;;10334071;28;20503;-72
2024/01/08 15:00:42;;;;;;;10.55;5.07;;;;;;;;;;10341979;28;20061;-72
2024/01/08 15:05:46;;;;;;;6.22;3.50;;;;;;;;;;10329060;28;20054;-72
2024/01/08 15:10:49;;;;;;;6.88;4.28;;;;;;;;;;10323566;28;20499;-73
2024/01/08 15:15:53;;;;;;;7.53;3.80;;;;;;;;;;10321481;28;20084;-73
2024/01/08 15:20:57;;;;;;;5.95;3.83;;;;;;;;;;10320935;28;20058;-73
2024/01/08 15:26:01;;;;;;;6.55;4.10;;;;;;;;;;10324285;28;20057;-73
2024/01/08 15:31:05;;;;;;;7.15;3.80;;;;;;;;;;10326798;28;20039;-73
2024/01/08 15:36:10;;;;;;;6.55;3.60;;;;;;;;;;10325817;28;20126;-73
2024/01/08 15:41:13;;;;;;;7.00;4.53;;;;;;;;;;10331048;28;20672;-73
2024/01/08 15:46:17;;;;;;;9.40;5.25;;;;;;;;;;10340366;28;20046;-73
2024/01/08 15:51:22;;;;;;;6.05;3.97;;;;;;;;;;10341399;28;20043;-73
2024/01/08 15:56:25;;;;;;;7.53;3.90;;;;;;;;;;10339615;28;20511;-73
2024/01/08 16:01:30;;;;;;;5.65;3.60;;;;;;;;;;10336753;28;20039;-73
2024/01/08 16:06:34;;;;;;;7.13;3.78;;;;;;;;;;10325294;28;20060;-73
2024/01/08 16:11:38;;;;;;;5.68;3.38;;;;;;;;;;10335189;28;20062;-73
2024/01/08 16:16:41;;;;;;;6.32;3.30;;;;;;;;;;10335256;28;20041;-73
2024/01/08 16:21:45;;;;;;;7.65;4.15;;;;;;;;;;10332484;28;20031;-73
2024/01/08 16:26:50;;;;;;;8.40;4.55;;;;;;;;;;10335692;28;20057;-73
2024/01/08 16:31:53;;;;;;;8.75;4.78;;;;;;;;;;10333416;28;20127;-73
2024/01/08 16:36:58;;;;;;;9.43;5.32;;;;;;;;;;10338297;28;20058;-73
2024/01/08 16:42:01;;;;;;;9.50;5.38;;;;;;;;;;10330175;28;20043;-73
2024/01/08 16:47:04;;;;;;;7.82;4.72;;;;;;;;;;10337772;28;20054;-73
2024/01/08 16:52:09;;;;;;;9.90;4.82;;;;;;;;;;10329877;28;20121;-73
2024/01/08 16:57:14;;;;;;;8.18;4.50;;;;;;;;;;10338099;28;20050;-73
2024/01/08 17:02:17;;;;;;;8.13;3.83;;;;;;;;;;10334306;28;20403;-73
2024/01/08 17:07:24;;;;;;;9.27;4.72;;;;;;;;;;10358229;23;20049;-72
2024/01/08 17:12:28;;;;;;;6.53;3.83;;;;;;;;;;10359772;28;20046;-71
2024/01/08 17:17:31;;;;;;;7.47;4.30;;;;;;;;;;10359583;28;20046;-71
2024/01/08 17:22:37;;;;;;;10.18;5.32;;;;;;;;;;10357755;28;20753;-71
2024/01/08 17:27:41;;;;;;;8.02;4.43;;;;;;;;;;10355387;28;20041;-71
2024/01/08 17:32:44;;;;;;;11.50;6.10;;;;;;;;;;10358191;28;20391;-71
2024/01/08 17:37:49;;;;;;;10.95;5.82;;;;;;;;;;10360014;28;20058;-71
2024/01/08 17:42:54;;;;;;;9.20;5.20;;;;;;;;;;10353068;28;20050;-71
2024/01/08 17:47:57;;;;;;;8.07;5.13;;;;;;;;;;10357626;28;20046;-71
2024/01/08 17:53:02;;;;;;;12.40;5.78;;;;;;;;;;10361883;28;20038;-71
2024/01/08 17:58:05;;;;;;;9.50;4.85;;;;;;;;;;10358001;28;23537;-71
2024/01/08 18:03:09;;;;;;;9.60;5.65;;;;;;;;;;10358541;28;20038;-74
2024/01/08 18:08:14;;;;;;;11.15;4.72;;;;;;;;;;10361194;28;20133;-72
2024/01/08 18:13:17;;;;;;;8.60;4.47;;;;;;;;;;10360571;28;20052;-72
2024/01/08 18:18:20;;;;;;;8.75;5.50;;;;;;;;;;10362490;28;20409;-71
2024/01/08 18:23:25;;;;;;;12.07;5.68;;;;;;;;;;10361612;28;20064;-71
2024/01/08 18:28:28;;;;;;;12.73;6.53;;;;;;;;;;10360491;28;20046;-71
2024/01/08 18:33:34;;;;;;;13.02;6.38;;;;;;;;;;10356322;28;20116;-71
2024/01/08 18:38:59;;;;;;;10.75;5.72;;;;;;;;;;10363856;28;20116;-71
2024/01/08 18:44:03;;;;;;;12.85;6.55;;;;;;;;;;10360208;28;20616;-71
2024/01/08 18:49:28;;;;;;;12.90;6.30;;;;;;;;;;10354792;28;20076;-71
2024/01/08 18:55:38;;;;;;;10.82;5.95;;;;;;;;;;10350310;28;20511;-72
2024/01/08 19:01:09;;;;;;;9.48;5.40;;;;;;;;;;10356347;28;20062;-72
2024/01/08 19:06:29;;;;;;;9.27;5.63;;;;;;;;;;10356486;28;20076;-72
2024/01/08 19:12:54;;;;;;;6.18;3.80;;;;;;;;;;10346993;28;20104;-72
2024/01/08 19:18:33;;;;;;;10.13;6.20;;;;;;;;;;10353700;28;20046;-72
2024/01/08 19:24:10;;;;;;;8.63;4.90;;;;;;;;;;10357382;28;20080;-71
2024/01/08 19:29:14;;;;;;;9.45;5.03;;;;;;;;;;10354898;28;20058;-72
2024/01/08 19:34:19;;;;;;;9.77;5.63;;;;;;;;;;10353526;28;20053;-72
2024/01/08 19:39:22;;;;;;;10.38;5.72;;;;;;;;;;10350257;28;20546;-74
2024/01/08 19:44:26;;;;;;;10.20;5.95;;;;;;;;;;10343435;28;20526;-74
2024/01/08 19:49:31;;;;;;;11.18;5.90;;;;;;;;;;10350900;28;20037;-74
2024/01/08 19:54:34;;;;;;;10.75;5.38;;;;;;;;;;10354647;28;20100;-74
2024/01/08 19:59:39;;;;;;;11.90;6.38;;;;;;;;;;10354738;28;20045;-74
2024/01/08 20:04:42;;;;;;;10.98;5.80;;;;;;;;;;10354244;28;20046;-74
2024/01/08 20:09:46;;;;;;;9.75;4.78;;;;;;;;;;10353034;28;20169;-74
2024/01/08 20:14:52;;;;;;;10.88;5.78;;;;;;;;;;10355284;28;20133;-72
2024/01/08 20:19:57;;;;;;;17.25;7.10;;;;;;;;;;10353923;28;20044;-72
2024/01/08 20:25:00;;;;;;;11.95;6.80;;;;;;;;;;10351704;28;20049;-72
2024/01/08 20:30:07;;;;;;;12.77;6.65;;;;;;;;;;10350007;28;20052;-72
2024/01/08 20:35:11;;;;;;;10.25;5.88;;;;;;;;;;10353291;28;20505;-72
2024/01/08 20:40:14;;;;;;;8.68;5.18;;;;;;;;;;10345275;28;20042;-71
2024/01/08 20:45:19;;;;;;;12.07;6.40;;;;;;;;;;10363529;28;20037;-72
2024/01/08 20:50:22;;;;;;;8.23;5.22;;;;;;;;;;10345108;28;20042;-72
2024/01/08 20:55:25;;;;;;;10.07;5.82;;;;;;;;;;10347176;28;20113;-72
2024/01/08 21:00:30;;;;;;;10.10;4.82;;;;;;;;;;10350964;28;20504;-72
2024/01/08 21:05:33;;;;;;;9.15;4.63;;;;;;;;;;10361688;28;20042;-72
2024/01/08 21:10:36;;;;;;;7.05;4.35;;;;;;;;;;10358201;28;20450;-72
2024/01/08 21:15:42;;;;;;;8.43;4.80;;;;;;;;;;10362178;28;20389;-72
2024/01/08 21:20:46;;;;;;;9.82;4.90;;;;;;;;;;10359949;28;20040;-74
2024/01/08 21:25:49;;;;;;;7.80;4.43;;;;;;;;;;10358461;28;20066;-75
2024/01/08 21:30:54;;;;;;;7.97;4.78;;;;;;;;;;10377389;28;20045;-74
2024/01/08 21:35:57;;;;;;;7.35;4.35;;;;;;;;;;10359595;28;20112;-75
2024/01/08 21:41:01;;;;;;;8.20;5.00;;;;;;;;;;10355431;28;20117;-75
2024/01/08 21:46:06;;;;;;;9.00;4.95;;;;;;;;;;10351406;28;20050;-75
2024/01/08 21:51:09;;;;;;;;;;;;;;;;;;10349132;28;20046;-75
2024/01/08 21:56:14;;;;;;;9.32;5.10;;;;;;;;;;10349659;28;19922;-75
2024/01/08 22:01:18;;;;;;;8.45;4.88;;;;;;;;;;10357979;28;20085;-75
2024/01/08 22:06:22;;;;;;;6.37;4.27;;;;;;;;;;10348839;28;20049;-72
2024/01/08 22:11:25;;;;;;;9.43;5.30;;;;;;;;;;10349139;28;20145;-73
2024/01/08 22:16:30;;;;;;;11.95;5.95;;;;;;;;;;10359564;28;20137;-73
2024/01/08 22:21:33;;;;;;;10.75;5.47;;;;;;;;;;10358385;28;20048;-73
2024/01/08 22:26:36;;;;;;;10.07;5.55;;;;;;;;;;10362918;28;20038;-73
2024/01/08 22:31:41;;;;;;;11.73;6.20;;;;;;;;;;10365705;28;20141;-72
2024/01/08 22:36:44;;;;;;;9.70;5.20;;;;;;;;;;10348506;28;20152;-75
2024/01/08 22:41:47;;;;;;;17.95;8.20;;;;;;;;;;10358318;28;20046;-75
2024/01/08 22:46:52;;;;;;;11.15;6.40;;;;;;;;;;10351452;28;20100;-75
2024/01/08 22:51:56;;;;;;;13.38;6.97;;;;;;;;;;10356939;28;20507;-75
2024/01/08 22:56:59;;;;;;;9.70;6.05;;;;;;;;;;10355297;28;20216;-75
2024/01/08 23:02:04;;;;;;;10.65;6.25;;;;;;;;;;10354171;28;20629;-75
2024/01/08 23:07:07;;;;;;;10.73;5.97;;;;;;;;;;10358146;28;20103;-75
2024/01/08 23:12:11;;;;;;;11.18;5.95;;;;;;;;;;10367594;28;20034;-75
2024/01/08 23:17:16;;;;;;;13.48;6.45;;;;;;;;;;10354716;28;20044;-75
2024/01/08 23:22:19;;;;;;;13.97;8.00;;;;;;;;;;10349230;28;20070;-75
2024/01/08 23:27:22;;;;;;;12.90;6.57;;;;;;;;;;10353580;28;20498;-76
2024/01/08 23:32:27;;;;;;;13.30;7.28;;;;;;;;;;10353291;28;20049;-76
2024/01/08 23:37:30;;;;;;;10.60;6.32;;;;;;;;;;10348898;28;20449;-76
2024/01/08 23:42:34;;;;;;;11.57;6.25;;;;;;;;;;10346770;28;20050;-76
2024/01/08 23:47:38;;;;;;;10.55;5.45;;;;;;;;;;10354046;28;20415;-76
2024/01/08 23:52:42;;;;;;;10.35;6.07;;;;;;;;;;10357282;28;20463;-76
2024/01/08 23:57:45;;;;;;;11.05;5.88;;;;;;;;;;10352524;28;20070;-76
